Time,TemperatureF,DewpointF,PressureIn,WindDirection,WindDirectionDegrees,WindSpeedMPH,WindSpeedGustMPH,Humidity,HourlyPrecipIn,Conditions,Clouds,dailyrainin,SoftwareType,DateUTC
2013-04-15 00:00:00,67.4,65.9,29.80,SSE,159,0.0,-999.0,95,0.00,,,0.00,WeatherSnoop3.0,2013-04-15 05:00:00,
2013-04-15 00:05:00,67.3,65.8,29.80,SE,136,0.0,-999.0,95,0.00,,,0.00,WeatherSnoop3.0,2013-04-15 05:05:00,
2013-04-15 00:10:00,67.2,65.7,29.80,SE,142,0.0,-999.0,95,0.00,,,0.00,WeatherSnoop3.0,2013-04-15 05:10:00,
2013-04-15 00:15:00,67.0,65.5,29.80,SSE,149,0.0,-999.0,95,0.00,,,0.00,WeatherSnoop3.0,2013-04-15 05:15:00,
2013-04-15 00:20:00,66.9,65.4,29.80,SSE,148,0.0,-999.0,95,0.00,,,0.00,WeatherSnoop3.0,2013-04-15 05:20:00,
2013-04-15 00:25:00,66.8,65.3,29.80,SSE,151,0.0,-999.0,95,0.00,,,0.00,WeatherSnoop3.0,2013-04-15 05:25:00,
2013-04-15 00:30:00,66.7,65.2,29.81,SE,128,0.0,-999.0,95,0.00,,,0.00,WeatherSnoop3.0,2013-04-15 05:30:00,
2013-04-15 00:35:00,66.6,65.1,29.81,SE,146,0.0,-999.0,95,0.00,,,0.00,WeatherSnoop3.0,2013-04-15 05:35:00,
2013-04-15 00:40:00,66.5,65.0,29.81,SE,138,0.0,-999.0,95,0.00,,,0.00,WeatherSnoop3.0,2013-04-15 05:40:00,
2013-04-15 00:45:00,66.4,64.9,29.81,SE,132,0.0,-999.0,95,0.00,,,0.00,WeatherSnoop3.0,2013-04-15 05:45:00,
2013-04-15 00:50:00,66.2,64.7,29.80,SE,134,0.0,-999.0,95,0.00,,,0.00,WeatherSnoop3.0,2013-04-15 05:50:00,
2013-04-15 00:55:00,66.1,64.6,29.80,SE,134,0.0,-999.0,95,0.00,,,0.00,WeatherSnoop3.0,2013-04-15 05:55:00,
2013-04-15 01:00:00,65.9,64.4,29.81,SE,134,0.0,-999.0,95,0.00,,,0.00,WeatherSnoop3.0,2013-04-15 06:00:00,
2013-04-15 01:05:00,65.7,64.2,29.80,SE,133,0.0,-999.0,95,0.00,,,0.00,WeatherSnoop3.0,2013-04-15 06:05:00,
2013-04-15 01:10:00,65.5,64.0,29.80,SE,134,0.0,-999.0,95,0.00,,,0.00,WeatherSnoop3.0,2013-04-15 06:10:00,
2013-04-15 01:15:00,65.3,63.8,29.80,SE,133,0.0,-999.0,95,0.00,,,0.00,WeatherSnoop3.0,2013-04-15 06:15:00,
2013-04-15 01:20:00,65.1,63.6,29.80,SE,132,0.0,-999.0,95,0.00,,,0.00,WeatherSnoop3.0,2013-04-15 06:20:00,
2013-04-15 01:25:00,65.0,63.8,29.80,SE,133,0.0,-999.0,96,0.00,,,0.00,WeatherSnoop3.0,2013-04-15 06:25:00,
2013-04-15 01:30:00,64.9,63.4,29.80,SE,133,0.0,-999.0,95,0.00,,,0.00,WeatherSnoop3.0,2013-04-15 06:30:00,
2013-04-15 01:35:00,64.9,63.7,29.80,SE,132,0.0,-999.0,96,0.00,,,0.00,WeatherSnoop3.0,2013-04-15 06:35:00,
2013-04-15 01:40:00,65.0,63.8,29.80,SE,132,0.0,-999.0,96,0.00,,,0.00,WeatherSnoop3.0,2013-04-15 06:40:00,
2013-04-15 01:45:00,64.9,63.7,29.80,SE,132,0.0,-999.0,96,0.00,,,0.00,WeatherSnoop3.0,2013-04-15 06:45:00,
2013-04-15 01:50:00,64.7,63.5,29.80,SE,132,0.0,-999.0,96,0.00,,,0.00,WeatherSnoop3.0,2013-04-15 06:50:00,
2013-04-15 01:55:00,64.4,63.2,29.80,SE,132,0.0,-999.0,96,0.00,,,0.00,WeatherSnoop3.0,2013-04-15 06:55:00,
2013-04-15 02:00:00,64.2,63.0,29.80,SE,132,0.0,-999.0,96,0.00,,,0.00,WeatherSnoop3.0,2013-04-15 07:00:00,
2013-04-15 02:06:00,64.1,62.9,29.80,SE,133,0.0,-999.0,96,0.00,,,0.00,WeatherSnoop3.0,2013-04-15 07:06:00,
2013-04-15 02:41:00,64.3,63.1,29.80,SE,145,0.0,-999.0,96,0.00,,,0.00,WeatherSnoop3.0,2013-04-15 07:41:00,
2013-04-15 02:46:00,64.3,63.4,29.80,SE,144,0.0,-999.0,97,0.00,,,0.00,WeatherSnoop3.0,2013-04-15 07:46:00,
2013-04-15 02:48:00,64.3,63.4,29.80,SE,142,0.0,-999.0,97,0.00,,,0.00,WeatherSnoop3.0,2013-04-15 07:48:00,
2013-04-15 02:51:00,64.4,63.5,29.80,SE,142,0.0,-999.0,97,0.00,,,0.00,WeatherSnoop3.0,2013-04-15 07:51:00,
2013-04-15 02:56:00,64.4,63.5,29.80,SE,142,0.0,-999.0,97,0.00,,,0.00,WeatherSnoop3.0,2013-04-15 07:56:00,
2013-04-15 03:01:00,64.4,63.5,29.80,SE,142,0.0,-999.0,97,0.00,,,0.00,WeatherSnoop3.0,2013-04-15 08:01:00,
2013-04-15 03:06:00,64.3,63.4,29.80,SE,142,0.0,-999.0,97,0.00,,,0.00,WeatherSnoop3.0,2013-04-15 08:06:00,
2013-04-15 03:12:00,64.3,63.4,29.80,SE,142,0.0,-999.0,97,0.00,,,0.00,WeatherSnoop3.0,2013-04-15 08:12:00,
2013-04-15 03:17:00,64.3,63.4,29.80,SE,143,0.0,-999.0,97,0.00,,,0.00,WeatherSnoop3.0,2013-04-15 08:17:00,
2013-04-15 03:22:00,64.1,63.2,29.80,SE,142,0.0,-999.0,97,0.00,,,0.00,WeatherSnoop3.0,2013-04-15 08:22:00,
2013-04-15 03:27:00,63.9,63.0,29.80,SE,142,0.0,-999.0,97,0.00,,,0.00,WeatherSnoop3.0,2013-04-15 08:27:00,
2013-04-15 03:33:00,63.8,62.9,29.80,SE,142,0.0,-999.0,97,0.00,,,0.00,WeatherSnoop3.0,2013-04-15 08:33:00,
2013-04-15 03:35:00,63.6,62.7,29.80,SE,142,0.0,-999.0,97,0.00,,,0.00,WeatherSnoop3.0,2013-04-15 08:35:00,
2013-04-15 03:40:00,63.1,62.2,29.80,SE,137,0.0,-999.0,97,0.00,,,0.00,WeatherSnoop3.0,2013-04-15 08:40:00,
2013-04-15 03:45:00,63.2,62.3,29.80,SE,136,0.0,-999.0,97,0.00,,,0.00,WeatherSnoop3.0,2013-04-15 08:45:00,
2013-04-15 03:50:00,63.3,62.4,29.80,SE,136,0.0,-999.0,97,0.00,,,0.00,WeatherSnoop3.0,2013-04-15 08:50:00,
2013-04-15 03:55:00,63.2,62.3,29.80,SE,136,0.0,-999.0,97,0.00,,,0.00,WeatherSnoop3.0,2013-04-15 08:55:00,
2013-04-15 04:00:00,63.0,62.1,29.81,SE,136,0.0,-999.0,97,0.00,,,0.00,WeatherSnoop3.0,2013-04-15 09:00:00,
2013-04-15 04:05:00,62.7,61.8,29.81,SE,136,0.0,-999.0,97,0.00,,,0.00,WeatherSnoop3.0,2013-04-15 09:05:00,
2013-04-15 04:10:00,62.7,61.8,29.81,SE,136,0.0,-999.0,97,0.00,,,0.00,WeatherSnoop3.0,2013-04-15 09:10:00,
2013-04-15 04:15:00,62.7,61.8,29.81,SE,136,0.0,-999.0,97,0.00,,,0.00,WeatherSnoop3.0,2013-04-15 09:15:00,
2013-04-15 04:20:00,62.8,61.9,29.81,SE,137,0.0,-999.0,97,0.00,,,0.00,WeatherSnoop3.0,2013-04-15 09:20:00,
2013-04-15 04:25:00,62.8,61.9,29.81,SE,136,0.0,-999.0,97,0.00,,,0.00,WeatherSnoop3.0,2013-04-15 09:25:00,
2013-04-15 04:30:00,62.7,61.8,29.82,SE,136,0.0,-999.0,97,0.00,,,0.00,WeatherSnoop3.0,2013-04-15 09:30:00,
2013-04-15 04:35:00,62.6,61.7,29.82,SE,136,0.0,-999.0,97,0.00,,,0.00,WeatherSnoop3.0,2013-04-15 09:35:00,
2013-04-15 04:40:00,62.5,61.6,29.82,SE,136,0.0,-999.0,97,0.00,,,0.00,WeatherSnoop3.0,2013-04-15 09:40:00,
2013-04-15 04:45:00,62.3,61.4,29.82,SE,137,0.0,-999.0,97,0.00,,,0.00,WeatherSnoop3.0,2013-04-15 09:45:00,
2013-04-15 04:50:00,62.0,61.1,29.82,SE,136,0.0,-999.0,97,0.00,,,0.00,WeatherSnoop3.0,2013-04-15 09:50:00,
2013-04-15 04:55:00,61.6,60.7,29.83,SE,136,0.0,-999.0,97,0.00,,,0.00,WeatherSnoop3.0,2013-04-15 09:55:00,
2013-04-15 05:00:00,61.4,60.5,29.83,SE,136,0.0,-999.0,97,0.00,,,0.00,WeatherSnoop3.0,2013-04-15 10:00:00,
2013-04-15 05:05:00,61.3,60.4,29.83,SE,136,0.0,-999.0,97,0.00,,,0.00,WeatherSnoop3.0,2013-04-15 10:05:00,
2013-04-15 05:10:00,61.6,60.7,29.83,SE,136,0.0,-999.0,97,0.00,,,0.00,WeatherSnoop3.0,2013-04-15 10:10:00,
2013-04-15 05:15:00,62.6,61.7,29.83,SE,136,0.0,-999.0,97,0.00,,,0.00,WeatherSnoop3.0,2013-04-15 10:15:00,
2013-04-15 05:20:00,63.0,62.1,29.83,SE,136,0.0,-999.0,97,0.00,,,0.00,WeatherSnoop3.0,2013-04-15 10:20:00,
2013-04-15 05:25:00,63.3,62.4,29.83,SE,137,0.0,-999.0,97,0.00,,,0.00,WeatherSnoop3.0,2013-04-15 10:25:00,
2013-04-15 05:30:00,63.5,62.9,29.83,SE,136,0.0,-999.0,98,0.00,,,0.00,WeatherSnoop3.0,2013-04-15 10:30:00,
2013-04-15 05:35:00,63.5,62.9,29.83,SE,136,0.0,-999.0,98,0.00,,,0.00,WeatherSnoop3.0,2013-04-15 10:35:00,
2013-04-15 05:40:00,63.6,63.0,29.84,SE,136,0.0,-999.0,98,0.00,,,0.00,WeatherSnoop3.0,2013-04-15 10:40:00,
2013-04-15 05:45:00,63.6,62.7,29.84,SE,136,0.0,-999.0,97,0.00,,,0.00,WeatherSnoop3.0,2013-04-15 10:45:00,
2013-04-15 05:50:00,63.7,62.8,29.84,SE,135,0.0,-999.0,97,0.00,,,0.00,WeatherSnoop3.0,2013-04-15 10:50:00,
2013-04-15 05:55:00,63.7,62.8,29.84,SE,136,0.0,-999.0,97,0.00,,,0.00,WeatherSnoop3.0,2013-04-15 10:55:00,
2013-04-15 06:01:00,63.6,62.7,29.84,SE,135,0.0,-999.0,97,0.00,,,0.00,WeatherSnoop3.0,2013-04-15 11:01:00,
2013-04-15 06:07:00,63.7,62.8,29.84,SE,134,0.0,-999.0,97,0.00,,,0.00,WeatherSnoop3.0,2013-04-15 11:07:00,
2013-04-15 06:12:00,63.7,62.8,29.84,ESE,107,0.0,-999.0,97,0.00,,,0.00,WeatherSnoop3.0,2013-04-15 11:12:00,
2013-04-15 06:17:00,63.7,63.1,29.84,ESE,117,0.0,-999.0,98,0.00,,,0.00,WeatherSnoop3.0,2013-04-15 11:17:00,
2013-04-15 06:22:00,63.8,63.2,29.84,ESE,122,0.0,-999.0,98,0.00,,,0.00,WeatherSnoop3.0,2013-04-15 11:22:00,
2013-04-15 06:27:00,63.8,63.2,29.84,SE,124,0.0,-999.0,98,0.00,,,0.00,WeatherSnoop3.0,2013-04-15 11:27:00,
2013-04-15 06:32:00,63.9,63.3,29.85,ESE,123,0.0,-999.0,98,0.00,,,0.00,WeatherSnoop3.0,2013-04-15 11:32:00,
2013-04-15 06:37:00,64.0,63.4,29.85,SE,129,0.0,-999.0,98,0.00,,,0.00,WeatherSnoop3.0,2013-04-15 11:37:00,
2013-04-15 06:42:00,64.0,63.4,29.85,SE,129,0.0,-999.0,98,0.00,,,0.00,WeatherSnoop3.0,2013-04-15 11:42:00,
2013-04-15 06:47:00,64.1,63.5,29.85,SE,129,0.0,-999.0,98,0.00,,,0.00,WeatherSnoop3.0,2013-04-15 11:47:00,
2013-04-15 06:52:00,64.1,63.5,29.85,SE,129,0.0,-999.0,98,0.00,,,0.00,WeatherSnoop3.0,2013-04-15 11:52:00,
2013-04-15 06:57:00,64.0,63.4,29.85,SE,129,0.0,-999.0,98,0.00,,,0.00,WeatherSnoop3.0,2013-04-15 11:57:00,
2013-04-15 07:02:00,63.8,63.2,29.85,SE,128,0.0,-999.0,98,0.00,,,0.00,WeatherSnoop3.0,2013-04-15 12:02:00,
2013-04-15 07:08:00,63.7,63.1,29.85,SE,128,0.0,-999.0,98,0.00,,,0.00,WeatherSnoop3.0,2013-04-15 12:08:00,
2013-04-15 07:13:00,63.7,63.1,29.86,SE,128,0.0,-999.0,98,0.00,,,0.00,WeatherSnoop3.0,2013-04-15 12:13:00,
2013-04-15 07:19:00,63.8,63.2,29.86,SE,132,0.0,-999.0,98,0.00,,,0.00,WeatherSnoop3.0,2013-04-15 12:19:00,
2013-04-15 07:24:00,63.9,63.3,29.86,SE,132,0.0,-999.0,98,0.00,,,0.00,WeatherSnoop3.0,2013-04-15 12:24:00,
2013-04-15 07:29:00,64.0,63.4,29.86,SE,134,0.0,-999.0,98,0.00,,,0.00,WeatherSnoop3.0,2013-04-15 12:29:00,
2013-04-15 07:34:00,64.3,63.7,29.86,SE,134,0.0,-999.0,98,0.00,,,0.00,WeatherSnoop3.0,2013-04-15 12:34:00,
2013-04-15 07:39:00,64.5,63.9,29.87,SE,133,0.0,-999.0,98,0.00,,,0.00,WeatherSnoop3.0,2013-04-15 12:39:00,
2013-04-15 07:44:00,64.7,64.1,29.87,SE,132,0.0,-999.0,98,0.00,,,0.00,WeatherSnoop3.0,2013-04-15 12:44:00,
2013-04-15 07:49:00,64.9,64.3,29.87,SE,133,0.0,-999.0,98,0.00,,,0.00,WeatherSnoop3.0,2013-04-15 12:49:00,
2013-04-15 07:54:00,65.2,64.6,29.87,SE,133,0.0,-999.0,98,0.00,,,0.00,WeatherSnoop3.0,2013-04-15 12:54:00,
2013-04-15 07:59:00,65.4,64.8,29.87,SE,132,0.0,-999.0,98,0.00,,,0.00,WeatherSnoop3.0,2013-04-15 12:59:00,
2013-04-15 08:04:00,65.6,65.0,29.88,SE,132,0.0,-999.0,98,0.00,,,0.00,WeatherSnoop3.0,2013-04-15 13:04:00,
2013-04-15 08:09:00,65.8,65.2,29.88,SE,132,0.0,-999.0,98,0.00,,,0.00,WeatherSnoop3.0,2013-04-15 13:09:00,
2013-04-15 08:14:00,65.9,65.3,29.88,SE,135,0.0,-999.0,98,0.00,,,0.00,WeatherSnoop3.0,2013-04-15 13:14:00,
2013-04-15 08:19:00,66.0,65.4,29.88,SE,136,0.0,-999.0,98,0.00,,,0.00,WeatherSnoop3.0,2013-04-15 13:19:00,
2013-04-15 08:24:00,66.1,65.5,29.88,SE,138,0.0,-999.0,98,0.00,,,0.00,WeatherSnoop3.0,2013-04-15 13:24:00,
2013-04-15 08:29:00,66.1,65.5,29.88,SSE,148,0.0,-999.0,98,0.00,,,0.00,WeatherSnoop3.0,2013-04-15 13:29:00,
2013-04-15 08:35:00,66.4,65.8,29.88,SSE,147,0.0,-999.0,98,0.00,,,0.00,WeatherSnoop3.0,2013-04-15 13:35:00,
2013-04-15 08:40:00,66.7,66.1,29.88,SE,132,0.0,-999.0,98,0.00,,,0.00,WeatherSnoop3.0,2013-04-15 13:40:00,
2013-04-15 08:45:00,66.9,66.3,29.88,SE,132,0.0,-999.0,98,0.00,,,0.00,WeatherSnoop3.0,2013-04-15 13:45:00,
2013-04-15 08:51:00,66.9,66.3,29.88,SE,130,0.0,-999.0,98,0.00,,,0.00,WeatherSnoop3.0,2013-04-15 13:51:00,
2013-04-15 08:56:00,66.9,66.3,29.88,SE,138,0.0,-999.0,98,0.00,,,0.00,WeatherSnoop3.0,2013-04-15 13:56:00,
2013-04-15 09:01:00,67.1,66.5,29.88,SSE,151,0.0,-999.0,98,0.00,,,0.00,WeatherSnoop3.0,2013-04-15 14:01:00,
2013-04-15 09:06:00,67.3,66.7,29.88,SSE,164,0.0,-999.0,98,0.00,,,0.00,WeatherSnoop3.0,2013-04-15 14:06:00,
2013-04-15 09:12:00,67.4,66.8,29.89,SE,136,0.0,-999.0,98,0.00,,,0.00,WeatherSnoop3.0,2013-04-15 14:12:00,
2013-04-15 09:17:00,67.9,67.3,29.89,SSE,148,0.0,-999.0,98,0.00,,,0.00,WeatherSnoop3.0,2013-04-15 14:17:00,
2013-04-15 09:23:00,68.3,67.7,29.89,SE,129,0.0,-999.0,98,0.00,,,0.00,WeatherSnoop3.0,2013-04-15 14:23:00,
2013-04-15 09:29:00,68.6,67.7,29.89,SE,138,0.0,-999.0,97,0.00,,,0.00,WeatherSnoop3.0,2013-04-15 14:29:00,
2013-04-15 09:34:00,68.9,68.0,29.89,SSE,150,0.0,-999.0,97,0.00,,,0.00,WeatherSnoop3.0,2013-04-15 14:34:00,
2013-04-15 09:39:00,69.0,67.8,29.89,SSE,168,0.0,-999.0,96,0.00,,,0.00,WeatherSnoop3.0,2013-04-15 14:39:00,
2013-04-15 09:44:00,68.9,67.7,29.89,SE,140,0.0,-999.0,96,0.00,,,0.00,WeatherSnoop3.0,2013-04-15 14:44:00,
2013-04-15 09:49:00,69.3,68.1,29.89,SE,136,0.0,-999.0,96,0.00,,,0.00,WeatherSnoop3.0,2013-04-15 14:49:00,
2013-04-15 09:54:00,69.7,68.5,29.90,SSE,147,0.0,-999.0,96,0.00,,,0.00,WeatherSnoop3.0,2013-04-15 14:54:00,
2013-04-15 09:59:00,70.5,69.0,29.90,ESE,113,0.0,-999.0,95,0.00,,,0.00,WeatherSnoop3.0,2013-04-15 14:59:00,
2013-04-15 10:04:00,71.2,69.4,29.90,ESE,105,0.0,-999.0,94,0.00,,,0.00,WeatherSnoop3.0,2013-04-15 15:04:00,
2013-04-15 10:09:00,71.7,69.9,29.89,SE,138,0.0,-999.0,94,0.00,,,0.00,WeatherSnoop3.0,2013-04-15 15:09:00,
2013-04-15 10:15:00,72.2,70.1,29.90,SE,126,0.0,-999.0,93,0.00,,,0.00,WeatherSnoop3.0,2013-04-15 15:15:00,
2013-04-15 10:20:00,72.8,70.3,29.90,ESE,112,0.0,-999.0,92,0.00,,,0.00,WeatherSnoop3.0,2013-04-15 15:20:00,
2013-04-15 10:25:00,73.1,70.3,29.90,ESE,111,0.0,-999.0,91,0.00,,,0.00,WeatherSnoop3.0,2013-04-15 15:25:00,
2013-04-15 10:30:00,73.5,70.7,29.90,SE,144,0.0,-999.0,91,0.00,,,0.00,WeatherSnoop3.0,2013-04-15 15:30:00,
2013-04-15 10:35:00,74.1,71.0,29.90,SSE,149,0.0,-999.0,90,0.00,,,0.00,WeatherSnoop3.0,2013-04-15 15:35:00,
2013-04-15 10:40:00,74.3,70.5,29.90,SE,139,0.0,-999.0,88,0.00,,,0.00,WeatherSnoop3.0,2013-04-15 15:40:00,
2013-04-15 10:45:00,74.7,70.6,29.90,ESE,120,0.0,-999.0,87,0.00,,,0.00,WeatherSnoop3.0,2013-04-15 15:45:00,
2013-04-15 10:51:00,75.1,70.3,29.91,ESE,120,0.0,-999.0,85,0.00,,,0.00,WeatherSnoop3.0,2013-04-15 15:51:00,
2013-04-15 10:56:00,75.2,70.0,29.91,ESE,116,0.0,-999.0,84,0.00,,,0.00,WeatherSnoop3.0,2013-04-15 15:56:00,
2013-04-15 11:01:00,75.6,70.8,29.91,ESE,104,0.0,-999.0,85,0.00,,,0.00,WeatherSnoop3.0,2013-04-15 16:01:00,
2013-04-15 11:06:00,75.9,71.1,29.91,SE,138,0.0,-999.0,85,0.00,,,0.00,WeatherSnoop3.0,2013-04-15 16:06:00,
2013-04-15 11:12:00,76.5,71.6,29.91,East,98,0.0,-999.0,85,0.00,,,0.00,WeatherSnoop3.0,2013-04-15 16:12:00,
2013-04-15 11:17:00,77.0,71.1,29.90,SE,136,0.0,-999.0,82,0.00,,,0.00,WeatherSnoop3.0,2013-04-15 16:17:00,
2013-04-15 11:22:00,77.1,71.2,29.90,South,173,0.0,-999.0,82,0.00,,,0.00,WeatherSnoop3.0,2013-04-15 16:22:00,
2013-04-15 18:50:00,78.8,74.2,29.85,ESE,111,0.0,-999.0,86,0.00,,,0.01,WeatherSnoop3.0,2013-04-15 23:50:00,
2013-04-15 18:55:00,78.7,74.1,29.86,ESE,111,0.0,-999.0,86,0.00,,,0.01,WeatherSnoop3.0,2013-04-15 23:55:00,
2013-04-15 19:00:00,78.6,74.4,29.85,ESE,111,0.0,-999.0,87,0.00,,,0.01,WeatherSnoop3.0,2013-04-16 00:00:00,
2013-04-15 19:05:00,78.5,74.3,29.85,ESE,104,0.0,-999.0,87,0.00,,,0.01,WeatherSnoop3.0,2013-04-16 00:05:00,
2013-04-15 19:10:00,78.3,74.1,29.85,East,99,0.0,-999.0,87,0.00,,,0.01,WeatherSnoop3.0,2013-04-16 00:10:00,
2013-04-15 19:15:00,78.2,74.0,29.86,East,100,0.0,-999.0,87,0.00,,,0.01,WeatherSnoop3.0,2013-04-16 00:15:00,
2013-04-15 19:20:00,78.1,74.2,29.86,East,100,0.0,-999.0,88,0.00,,,0.01,WeatherSnoop3.0,2013-04-16 00:20:00,
2013-04-15 19:25:00,78.0,74.1,29.86,East,100,0.0,-999.0,88,0.00,,,0.01,WeatherSnoop3.0,2013-04-16 00:25:00,
2013-04-15 19:30:00,77.9,74.0,29.86,East,101,0.0,-999.0,88,0.00,,,0.01,WeatherSnoop3.0,2013-04-16 00:30:00,
2013-04-15 19:35:00,77.8,74.0,29.86,East,101,0.0,-999.0,88,0.00,,,0.01,WeatherSnoop3.0,2013-04-16 00:35:00,
2013-04-15 19:40:00,77.7,74.2,29.86,East,100,0.0,-999.0,89,0.00,,,0.01,WeatherSnoop3.0,2013-04-16 00:40:00,
2013-04-15 19:45:00,77.6,74.1,29.86,East,101,0.0,-999.0,89,0.00,,,0.01,WeatherSnoop3.0,2013-04-16 00:45:00,
2013-04-15 19:50:00,77.5,74.0,29.87,SE,136,0.0,-999.0,89,0.00,,,0.01,WeatherSnoop3.0,2013-04-16 00:50:00,
2013-04-15 19:55:00,77.4,73.9,29.87,SE,132,0.0,-999.0,89,0.00,,,0.01,WeatherSnoop3.0,2013-04-16 00:55:00,
2013-04-15 20:00:00,77.3,73.8,29.87,SE,128,0.0,-999.0,89,0.00,,,0.01,WeatherSnoop3.0,2013-04-16 01:00:00,
2013-04-15 20:05:00,77.1,73.6,29.87,SE,128,0.0,-999.0,89,0.00,,,0.01,WeatherSnoop3.0,2013-04-16 01:05:00,
2013-04-15 20:10:00,77.0,73.5,29.87,SE,129,0.0,-999.0,89,0.00,,,0.01,WeatherSnoop3.0,2013-04-16 01:10:00,
2013-04-15 20:15:00,76.8,73.6,29.87,SE,132,0.0,-999.0,90,0.00,,,0.01,WeatherSnoop3.0,2013-04-16 01:15:00,
2013-04-15 20:20:00,76.6,73.4,29.87,SE,132,0.0,-999.0,90,0.00,,,0.01,WeatherSnoop3.0,2013-04-16 01:20:00,
2013-04-15 20:25:00,76.5,73.3,29.88,ESE,119,0.0,-999.0,90,0.00,,,0.01,WeatherSnoop3.0,2013-04-16 01:25:00,
2013-04-15 20:30:00,76.3,73.1,29.88,ESE,121,0.0,-999.0,90,0.00,,,0.01,WeatherSnoop3.0,2013-04-16 01:30:00,
2013-04-15 20:35:00,76.1,72.9,29.88,SE,125,0.0,-999.0,90,0.00,,,0.01,WeatherSnoop3.0,2013-04-16 01:35:00,
2013-04-15 20:40:00,76.0,73.2,29.88,ESE,112,0.0,-999.0,91,0.00,,,0.01,WeatherSnoop3.0,2013-04-16 01:40:00,
2013-04-15 20:45:00,75.8,73.0,29.88,ESE,112,0.0,-999.0,91,0.00,,,0.01,WeatherSnoop3.0,2013-04-16 01:45:00,
2013-04-15 20:50:00,75.8,73.0,29.89,SE,132,0.0,-999.0,91,0.00,,,0.01,WeatherSnoop3.0,2013-04-16 01:50:00,
2013-04-15 20:55:00,75.7,72.9,29.89,ESE,119,0.0,-999.0,91,0.00,,,0.01,WeatherSnoop3.0,2013-04-16 01:55:00,
2013-04-15 21:00:00,75.7,73.2,29.89,SE,127,0.0,-999.0,92,0.00,,,0.01,WeatherSnoop3.0,2013-04-16 02:00:00,
2013-04-15 21:05:00,75.8,73.3,29.89,SE,138,0.0,-999.0,92,0.00,,,0.01,WeatherSnoop3.0,2013-04-16 02:05:00,
2013-04-15 21:10:00,75.8,73.3,29.90,ESE,122,0.0,-999.0,92,0.00,,,0.01,WeatherSnoop3.0,2013-04-16 02:10:00,
2013-04-15 21:15:00,75.8,73.3,29.90,SE,125,0.0,-999.0,92,0.00,,,0.01,WeatherSnoop3.0,2013-04-16 02:15:00,
2013-04-15 21:20:00,75.8,73.3,29.90,SE,126,0.0,-999.0,92,0.00,,,0.01,WeatherSnoop3.0,2013-04-16 02:20:00,
2013-04-15 21:25:00,75.8,73.0,29.91,SSE,149,0.0,-999.0,91,0.00,,,0.01,WeatherSnoop3.0,2013-04-16 02:25:00,
2013-04-15 21:30:00,75.9,73.1,29.91,SE,136,0.0,-999.0,91,0.00,,,0.01,WeatherSnoop3.0,2013-04-16 02:30:00,
2013-04-15 21:35:00,76.0,73.2,29.91,SSE,164,0.0,-999.0,91,0.00,,,0.01,WeatherSnoop3.0,2013-04-16 02:35:00,
2013-04-15 21:40:00,76.0,73.2,29.91,SE,145,0.0,-999.0,91,0.00,,,0.01,WeatherSnoop3.0,2013-04-16 02:40:00,
2013-04-15 21:45:00,75.9,73.1,29.92,SE,136,0.0,-999.0,91,0.00,,,0.01,WeatherSnoop3.0,2013-04-16 02:45:00,
2013-04-15 21:50:00,75.9,73.1,29.92,SSE,149,0.0,-999.0,91,0.00,,,0.01,WeatherSnoop3.0,2013-04-16 02:50:00,
2013-04-15 21:55:00,75.9,73.1,29.92,SE,138,0.0,-999.0,91,0.00,,,0.01,WeatherSnoop3.0,2013-04-16 02:55:00,
2013-04-15 22:00:00,75.8,73.0,29.92,SE,130,0.0,-999.0,91,0.00,,,0.01,WeatherSnoop3.0,2013-04-16 03:00:00,
2013-04-15 22:05:00,75.8,73.0,29.92,SE,137,0.0,-999.0,91,0.00,,,0.01,WeatherSnoop3.0,2013-04-16 03:05:00,
2013-04-15 22:10:00,75.7,72.9,29.92,SSE,154,0.0,-999.0,91,0.00,,,0.01,WeatherSnoop3.0,2013-04-16 03:10:00,
2013-04-15 22:15:00,75.7,72.9,29.92,SE,131,0.0,-999.0,91,0.00,,,0.01,WeatherSnoop3.0,2013-04-16 03:15:00,
2013-04-15 22:20:00,75.6,72.8,29.92,ESE,109,0.0,-999.0,91,0.00,,,0.01,WeatherSnoop3.0,2013-04-16 03:20:00,
2013-04-15 22:25:00,75.6,72.8,29.92,SSE,151,0.0,-999.0,91,0.00,,,0.01,WeatherSnoop3.0,2013-04-16 03:25:00,
2013-04-15 22:30:00,75.6,72.8,29.92,SE,140,0.0,-999.0,91,0.00,,,0.01,WeatherSnoop3.0,2013-04-16 03:30:00,
2013-04-15 22:35:00,75.6,72.8,29.93,SE,138,0.0,-999.0,91,0.00,,,0.01,WeatherSnoop3.0,2013-04-16 03:35:00,
2013-04-15 22:40:00,75.6,72.8,29.93,SE,134,0.0,-999.0,91,0.00,,,0.01,WeatherSnoop3.0,2013-04-16 03:40:00,
2013-04-15 22:45:00,75.6,73.1,29.92,SSE,147,0.0,-999.0,92,0.00,,,0.01,WeatherSnoop3.0,2013-04-16 03:45:00,
2013-04-15 22:50:00,75.5,72.7,29.92,SE,144,0.0,-999.0,91,0.00,,,0.01,WeatherSnoop3.0,2013-04-16 03:50:00,
2013-04-15 22:55:00,75.5,73.0,29.92,SE,132,0.0,-999.0,92,0.00,,,0.01,WeatherSnoop3.0,2013-04-16 03:55:00,
2013-04-15 23:00:00,75.4,72.9,29.92,SE,131,0.0,-999.0,92,0.00,,,0.01,WeatherSnoop3.0,2013-04-16 04:00:00,
2013-04-15 23:05:00,75.4,72.9,29.92,SE,140,0.0,-999.0,92,0.00,,,0.01,WeatherSnoop3.0,2013-04-16 04:05:00,
2013-04-15 23:10:00,75.3,72.8,29.93,ESE,118,0.0,-999.0,92,0.00,,,0.01,WeatherSnoop3.0,2013-04-16 04:10:00,
2013-04-15 23:15:00,75.3,72.8,29.93,SE,140,0.0,-999.0,92,0.00,,,0.01,WeatherSnoop3.0,2013-04-16 04:15:00,
2013-04-15 23:20:00,75.3,72.8,29.93,SSE,157,0.0,-999.0,92,0.00,,,0.01,WeatherSnoop3.0,2013-04-16 04:20:00,
2013-04-15 23:25:00,75.3,72.8,29.93,SSE,147,0.0,-999.0,92,0.00,,,0.01,WeatherSnoop3.0,2013-04-16 04:25:00,
2013-04-15 23:30:00,75.2,72.7,29.93,SE,146,0.0,-999.0,92,0.00,,,0.01,WeatherSnoop3.0,2013-04-16 04:30:00,
2013-04-15 23:35:00,75.2,72.7,29.93,SE,146,0.0,-999.0,92,0.00,,,0.01,WeatherSnoop3.0,2013-04-16 04:35:00,
2013-04-15 23:40:00,75.2,72.7,29.92,SSE,148,0.0,-999.0,92,0.00,,,0.01,WeatherSnoop3.0,2013-04-16 04:40:00,
2013-04-15 23:45:00,75.1,72.9,29.92,SE,134,0.0,-999.0,93,0.00,,,0.01,WeatherSnoop3.0,2013-04-16 04:45:00,
2013-04-15 23:50:00,75.1,72.9,29.93,SSE,151,0.0,-999.0,93,0.00,,,0.01,WeatherSnoop3.0,2013-04-16 04:50:00,
2013-04-15 23:55:00,75.1,72.9,29.93,SE,143,0.0,-999.0,93,0.00,,,0.01,WeatherSnoop3.0,2013-04-16 04:55:00,